createdAt,value
2017-06-08T00:02:02.215Z,3.25
2017-06-08T00:04:31.221Z,4.28
2017-06-08T00:07:00.147Z,3.90
2017-06-08T00:09:29.144Z,3.45
2017-06-08T00:11:58.103Z,3.55
2017-06-08T00:14:26.967Z,3.70
2017-06-08T00:16:55.870Z,3.70
2017-06-08T00:19:25.069Z,3.35
2017-06-08T00:21:53.952Z,3.70
2017-06-08T00:24:22.859Z,3.40
2017-06-08T00:26:51.819Z,3.10
2017-06-08T00:29:21.993Z,3.28
2017-06-08T00:31:51.077Z,3.08
2017-06-08T00:34:20.047Z,3.60
2017-06-08T00:36:49.350Z,3.67
2017-06-08T00:39:18.552Z,3.37
2017-06-08T00:41:47.468Z,4.85
2017-06-08T00:44:16.328Z,3.17
2017-06-08T00:46:45.169Z,3.10
2017-06-08T00:49:14.023Z,3.20
2017-06-08T00:51:42.883Z,2.97
2017-06-08T00:54:11.874Z,3.10
2017-06-08T00:56:41.872Z,3.55
2017-06-08T00:59:11.148Z,3.80
2017-06-08T01:01:40.033Z,2.80
2017-06-08T01:04:09.012Z,3.35
2017-06-08T01:06:38.218Z,2.92
2017-06-08T01:09:07.353Z,3.40
2017-06-08T01:11:36.213Z,3.10
2017-06-08T01:14:05.262Z,3.20
2017-06-08T01:16:34.097Z,2.80
2017-06-08T01:19:03.014Z,3.62
2017-06-08T01:21:31.972Z,3.92
2017-06-08T01:24:00.928Z,3.70
2017-06-08T01:26:30.125Z,3.20
2017-06-08T01:28:59.003Z,4.10
2017-06-08T01:31:27.998Z,2.90
2017-06-08T01:33:56.925Z,4.00
2017-06-08T01:36:25.865Z,3.65
2017-06-08T01:38:54.761Z,3.83
2017-06-08T01:41:23.663Z,3.60
2017-06-08T01:43:52.831Z,3.30
2017-06-08T01:46:21.780Z,3.35
2017-06-08T01:48:50.708Z,3.60
2017-06-08T01:51:19.908Z,3.87
2017-06-08T01:53:48.793Z,3.40
2017-06-08T01:56:17.747Z,3.80
2017-06-08T01:58:46.674Z,3.83
2017-06-08T02:01:15.619Z,3.80
2017-06-08T02:03:44.588Z,3.80
2017-06-08T02:06:13.560Z,3.92
2017-06-08T02:08:42.394Z,3.58
2017-06-08T02:11:11.284Z,3.92
2017-06-08T02:13:40.174Z,4.03
2017-06-08T02:16:09.109Z,3.85
2017-06-08T02:18:37.997Z,3.28
2017-06-08T02:21:06.979Z,4.18
2017-06-08T02:23:35.822Z,4.70
2017-06-08T02:26:05.877Z,3.80
2017-06-08T02:28:34.807Z,4.20
2017-06-08T02:31:04.612Z,3.85
2017-06-08T02:33:33.501Z,3.85
2017-06-08T02:36:02.375Z,4.05
2017-06-08T02:38:31.257Z,3.35
2017-06-08T02:43:38.220Z,3.60
2017-06-08T02:46:07.067Z,3.90
2017-06-08T02:48:35.937Z,4.18
2017-06-08T02:51:05.650Z,3.85
2017-06-08T02:53:35.045Z,3.87
2017-06-08T02:56:03.971Z,4.35
2017-06-08T02:58:33.464Z,3.58
2017-06-08T03:01:02.332Z,3.70
2017-06-08T03:03:31.194Z,4.12
2017-06-08T03:06:00.135Z,3.78
2017-06-08T03:08:29.067Z,3.40
2017-06-08T03:10:58.605Z,4.20
2017-06-08T03:13:27.522Z,3.40
2017-06-08T03:15:56.430Z,3.90
2017-06-08T03:18:25.303Z,3.85
2017-06-08T03:20:54.500Z,4.80
2017-06-08T03:23:23.375Z,4.47
2017-06-08T03:25:52.688Z,3.53
2017-06-08T03:28:21.872Z,3.58
2017-06-08T03:30:50.772Z,3.40
2017-06-08T03:33:19.658Z,4.70
2017-06-08T03:35:48.513Z,3.65
2017-06-08T03:38:17.333Z,3.97
2017-06-08T03:40:46.202Z,3.72
2017-06-08T03:43:15.944Z,4.15
2017-06-08T03:45:44.809Z,4.28
2017-06-08T03:48:13.671Z,4.12
2017-06-08T03:50:42.525Z,3.80
2017-06-08T03:53:11.535Z,4.20
2017-06-08T03:55:40.440Z,3.40
2017-06-08T03:58:09.644Z,3.60
2017-06-08T04:00:38.567Z,3.80
2017-06-08T04:03:07.629Z,4.40
2017-06-08T04:05:36.925Z,3.78
2017-06-08T04:08:05.855Z,3.55
2017-06-08T04:10:34.792Z,3.78
2017-06-08T04:13:03.695Z,4.18
2017-06-08T04:15:34.376Z,4.18
2017-06-08T04:18:03.305Z,3.58
2017-06-08T04:20:32.242Z,3.80
2017-06-08T04:23:01.357Z,3.95
2017-06-08T04:25:31.590Z,3.92
2017-06-08T04:28:00.586Z,3.20
2017-06-08T04:30:29.513Z,3.75
2017-06-08T04:32:58.434Z,3.83
2017-06-08T04:35:27.370Z,4.18
2017-06-08T04:37:56.262Z,3.40
2017-06-08T04:40:25.510Z,3.75
2017-06-08T04:42:54.412Z,3.50
2017-06-08T04:45:23.387Z,3.60
2017-06-08T04:47:52.556Z,3.45
2017-06-08T04:50:21.567Z,3.70
2017-06-08T04:52:50.458Z,3.67
2017-06-08T04:55:20.137Z,3.40
2017-06-08T04:57:49.107Z,4.45
2017-06-08T05:00:18.156Z,3.25
2017-06-08T05:02:47.272Z,3.62
2017-06-08T05:05:16.883Z,3.58
2017-06-08T05:07:45.818Z,4.15
2017-06-08T05:10:14.899Z,3.90
2017-06-08T05:12:43.887Z,3.50
2017-06-08T05:15:14.239Z,4.70
2017-06-08T05:17:43.142Z,3.60
2017-06-08T05:20:12.971Z,3.35
2017-06-08T05:22:42.825Z,3.60
2017-06-08T05:25:11.836Z,3.87
2017-06-08T05:27:41.045Z,3.40
2017-06-08T05:30:11.452Z,4.28
2017-06-08T05:32:40.619Z,3.15
2017-06-08T05:35:28.752Z,5.00
2017-06-08T05:37:57.966Z,3.80
2017-06-08T05:40:29.858Z,4.35
2017-06-08T05:43:03.679Z,3.47
2017-06-08T05:45:36.708Z,3.20
2017-06-08T05:48:09.380Z,4.28
2017-06-08T05:50:38.338Z,3.72
2017-06-08T05:53:08.063Z,3.28
2017-06-08T05:55:37.459Z,3.50
2017-06-08T05:58:06.970Z,3.85
2017-06-08T06:00:36.180Z,4.15
2017-06-08T06:03:10.657Z,3.50
2017-06-08T06:05:45.102Z,3.50
2017-06-08T06:08:14.563Z,4.45
2017-06-08T06:10:44.432Z,3.75
2017-06-08T06:13:13.842Z,3.35
2017-06-08T06:15:43.404Z,3.67
2017-06-08T06:18:12.502Z,3.95
2017-06-08T06:20:42.047Z,4.35
2017-06-08T06:23:11.850Z,4.00
2017-06-08T06:25:41.588Z,3.47
2017-06-08T06:28:10.538Z,3.83
2017-06-08T06:30:40.157Z,4.35
2017-06-08T06:33:09.728Z,5.12
2017-06-08T06:35:38.721Z,4.70
2017-06-08T06:38:09.517Z,4.05
2017-06-08T06:40:39.368Z,4.37
2017-06-08T06:43:08.435Z,5.75
2017-06-08T06:45:38.579Z,4.68
2017-06-08T06:48:08.713Z,5.60
2017-06-08T06:50:38.901Z,5.30
2017-06-08T06:53:08.531Z,4.40
2017-06-08T06:55:37.450Z,5.45
2017-06-08T06:58:08.705Z,4.62
2017-06-08T07:00:37.760Z,4.40
2017-06-08T07:03:07.915Z,4.40
2017-06-08T07:05:37.431Z,5.47
2017-06-08T07:08:09.806Z,4.35
2017-06-08T07:10:39.473Z,4.93
2017-06-08T07:13:10.343Z,5.35
2017-06-08T07:15:40.401Z,5.15
2017-06-08T07:18:13.417Z,4.60
2017-06-08T07:20:45.127Z,4.37
2017-06-08T07:23:14.657Z,4.40
2017-06-08T07:25:50.344Z,5.00
2017-06-08T07:28:19.759Z,4.53
2017-06-08T07:30:49.168Z,4.50
2017-06-08T07:33:18.186Z,4.20
2017-06-08T07:35:48.146Z,4.80
2017-06-08T07:38:20.379Z,4.10
2017-06-08T07:40:49.371Z,4.70
2017-06-08T07:43:18.542Z,3.60
2017-06-08T07:45:48.578Z,4.12
2017-06-08T07:48:18.294Z,3.80
2017-06-08T07:53:25.503Z,4.80
2017-06-08T07:55:55.160Z,4.05
2017-06-08T07:58:30.544Z,4.00
2017-06-08T08:01:09.387Z,4.22
2017-06-08T08:03:38.480Z,3.33
2017-06-08T08:06:07.624Z,4.40
2017-06-08T08:08:36.673Z,4.93
2017-06-08T08:11:06.816Z,3.70
2017-06-08T08:13:35.802Z,4.25
2017-06-08T08:16:05.824Z,3.75
2017-06-08T08:18:36.145Z,3.60
2017-06-08T08:21:06.373Z,3.35
2017-06-08T08:23:36.243Z,3.87
2017-06-08T08:26:09.342Z,3.62
2017-06-08T08:28:38.290Z,3.55
2017-06-08T08:31:13.960Z,3.60
2017-06-08T08:33:43.063Z,3.53
2017-06-08T08:36:14.263Z,4.28
2017-06-08T08:38:45.081Z,3.70
2017-06-08T08:41:14.223Z,3.40
2017-06-08T08:43:43.184Z,3.10
2017-06-08T08:46:12.279Z,3.58
2017-06-08T08:48:42.026Z,3.53
2017-06-08T08:51:11.339Z,3.70
2017-06-08T08:53:41.578Z,3.45
2017-06-08T08:56:11.829Z,3.10
2017-06-08T08:58:40.940Z,3.47
2017-06-08T09:01:13.247Z,3.53
2017-06-08T09:03:42.361Z,3.15
2017-06-08T09:06:13.421Z,3.10
2017-06-08T09:08:42.546Z,3.37
2017-06-08T09:11:11.620Z,3.12
2017-06-08T09:13:40.631Z,3.08
2017-06-08T09:16:10.671Z,3.00
2017-06-08T09:18:39.706Z,3.12
2017-06-08T09:21:09.276Z,3.62
2017-06-08T09:23:38.296Z,2.97
2017-06-08T09:26:08.100Z,2.92
2017-06-08T09:28:37.192Z,2.90
2017-06-08T09:31:06.265Z,2.92
2017-06-08T09:33:35.228Z,2.73
2017-06-08T09:36:08.272Z,2.50
2017-06-08T09:38:37.450Z,2.90
2017-06-08T09:41:06.504Z,3.17
2017-06-08T09:43:36.607Z,3.07
2017-06-08T09:46:08.196Z,3.10
2017-06-08T09:48:37.191Z,2.40
2017-06-08T09:51:08.748Z,2.70
2017-06-08T09:53:37.828Z,2.30
2017-06-08T09:56:11.370Z,2.50
2017-06-08T09:58:42.332Z,2.83
2017-06-08T10:01:11.526Z,2.90
2017-06-08T10:03:41.708Z,2.60
2017-06-08T10:06:11.182Z,2.90
2017-06-08T10:08:40.343Z,2.70
2017-06-08T10:11:12.449Z,2.33
2017-06-08T10:13:43.450Z,3.00
2017-06-08T10:16:13.663Z,2.33
2017-06-08T10:18:43.552Z,2.80
2017-06-08T10:21:14.731Z,2.33
2017-06-08T10:23:47.412Z,2.30
2017-06-08T10:26:17.317Z,2.30
2017-06-08T10:28:46.290Z,2.53
2017-06-08T10:31:16.941Z,2.60
2017-06-08T10:33:46.628Z,3.40
2017-06-08T10:36:16.488Z,2.80
2017-06-08T10:38:45.507Z,2.47
2017-06-08T10:41:14.513Z,2.80
2017-06-08T10:43:44.436Z,2.30
2017-06-08T10:46:14.366Z,2.87
2017-06-08T10:48:43.657Z,2.45
2017-06-08T10:51:13.448Z,2.17
2017-06-08T10:53:44.196Z,3.40
2017-06-08T10:56:16.183Z,3.70
2017-06-08T10:58:49.739Z,2.28
2017-06-08T11:01:19.392Z,2.75
2017-06-08T11:03:48.396Z,2.67
2017-06-08T11:06:17.811Z,2.60
2017-06-08T11:08:52.284Z,2.10
2017-06-08T11:13:56.441Z,2.50
2017-06-08T11:16:25.884Z,1.90
2017-06-08T11:18:57.546Z,2.37
2017-06-08T11:21:28.794Z,2.40
2017-06-08T11:23:57.909Z,2.60
2017-06-08T11:26:28.176Z,2.23
2017-06-08T11:28:57.947Z,2.87
2017-06-08T11:31:27.416Z,2.17
2017-06-08T11:34:00.579Z,2.43
2017-06-08T11:36:44.726Z,2.40
2017-06-08T11:39:15.858Z,2.43
2017-06-08T11:41:45.361Z,2.77
2017-06-08T11:44:14.378Z,2.40
2017-06-08T11:46:43.491Z,2.10
2017-06-08T11:49:12.524Z,2.40
2017-06-08T11:51:41.648Z,1.97
2017-06-08T11:54:10.713Z,2.10
2017-06-08T11:56:41.266Z,2.23
2017-06-08T11:59:10.476Z,2.40
2017-06-08T12:01:39.611Z,4.60
2017-06-08T12:04:09.772Z,2.40
2017-06-08T12:06:40.680Z,2.17
2017-06-08T12:09:11.867Z,2.40
2017-06-08T12:11:42.412Z,2.40
2017-06-08T12:14:11.569Z,2.43
2017-06-08T12:16:40.592Z,2.47
2017-06-08T12:19:09.690Z,2.27
2017-06-08T12:21:39.747Z,2.37
2017-06-08T12:24:09.751Z,2.50
2017-06-08T12:26:42.948Z,2.40
2017-06-08T12:29:16.081Z,2.30
2017-06-08T12:31:45.274Z,2.50
2017-06-08T12:34:14.239Z,2.50
2017-06-08T12:36:43.248Z,2.80
2017-06-08T12:39:13.084Z,3.10
2017-06-08T12:41:42.429Z,2.43
2017-06-08T12:44:11.542Z,2.63
2017-06-08T12:46:42.464Z,2.30
2017-06-08T12:49:11.737Z,3.10
2017-06-08T12:51:40.752Z,2.80
2017-06-08T12:54:10.899Z,3.30
2017-06-08T12:56:41.300Z,2.60
2017-06-08T12:59:11.125Z,2.50
2017-06-08T13:01:41.028Z,2.83
2017-06-08T13:04:10.119Z,2.47
2017-06-08T13:06:40.398Z,2.43
2017-06-08T13:09:11.837Z,2.70
2017-06-08T13:11:43.027Z,3.17
2017-06-08T13:14:13.239Z,2.40
2017-06-08T13:16:44.484Z,2.90
2017-06-08T13:19:14.867Z,2.67
2017-06-08T13:21:44.107Z,2.57
2017-06-08T13:24:14.257Z,2.80
2017-06-08T13:26:50.874Z,2.37
2017-06-08T13:29:21.198Z,2.90
2017-06-08T13:31:50.388Z,3.10
2017-06-08T13:34:20.495Z,2.60
2017-06-08T13:36:52.670Z,2.50
2017-06-08T13:39:22.129Z,2.87
2017-06-08T13:41:51.231Z,2.70
2017-06-08T13:44:23.259Z,2.40
2017-06-08T13:46:52.335Z,2.60
2017-06-08T13:49:22.277Z,2.37
2017-06-08T13:51:51.497Z,2.60
2017-06-08T13:54:22.637Z,2.67
2017-06-08T13:56:52.453Z,2.83
2017-06-08T13:59:21.562Z,2.97
2017-06-08T14:01:50.648Z,2.93
2017-06-08T14:04:20.821Z,2.80
2017-06-08T14:06:49.889Z,2.67
2017-06-08T14:09:20.005Z,2.57
2017-06-08T14:11:51.913Z,2.60
2017-06-08T14:14:22.839Z,3.00
2017-06-08T14:16:51.977Z,2.60
2017-06-08T14:19:21.184Z,3.10
2017-06-08T14:21:51.883Z,2.70
2017-06-08T14:24:21.031Z,2.40
2017-06-08T14:26:50.237Z,2.70
2017-06-08T14:29:20.612Z,3.17
2017-06-08T14:31:50.227Z,2.73
2017-06-08T14:34:19.783Z,2.73
2017-06-08T14:36:48.760Z,2.60
2017-06-08T14:39:19.408Z,3.07
2017-06-08T14:41:48.366Z,2.50
2017-06-08T14:44:17.752Z,2.60
2017-06-08T14:46:49.141Z,2.90
2017-06-08T14:49:19.250Z,3.10
2017-06-08T14:51:51.979Z,2.50
2017-06-08T14:54:25.227Z,2.53
2017-06-08T14:56:55.059Z,2.67
2017-06-08T14:59:27.940Z,2.63
2017-06-08T15:01:57.445Z,2.60
2017-06-08T15:04:30.882Z,3.00
2017-06-08T15:07:00.756Z,3.00
2017-06-08T15:09:31.947Z,2.57
2017-06-08T15:12:01.714Z,3.40
2017-06-08T15:14:33.505Z,2.87
2017-06-08T15:17:06.229Z,3.03
2017-06-08T15:19:36.856Z,2.90
2017-06-08T15:22:17.045Z,2.53
2017-06-08T15:24:51.090Z,2.57
2017-06-08T15:27:20.432Z,3.00
2017-06-08T15:29:51.786Z,2.87
2017-06-08T15:32:23.224Z,2.63
2017-06-08T15:34:54.083Z,2.57
2017-06-08T15:37:23.272Z,2.60
2017-06-08T15:39:53.188Z,3.33
2017-06-08T15:42:25.659Z,3.07
2017-06-08T15:44:56.617Z,2.90
2017-06-08T15:47:27.374Z,2.50
2017-06-08T15:49:56.394Z,3.03
2017-06-08T15:52:27.261Z,2.77
2017-06-08T15:54:56.440Z,2.97
2017-06-08T15:57:34.031Z,3.03
2017-06-08T16:00:19.967Z,2.83
2017-06-08T16:02:51.107Z,3.13
2017-06-08T16:05:24.219Z,3.00
2017-06-08T16:07:54.950Z,3.10
2017-06-08T16:10:29.265Z,3.40
2017-06-08T16:12:58.438Z,2.90
2017-06-08T16:15:29.178Z,2.73
2017-06-08T16:17:58.536Z,3.00
2017-06-08T16:20:29.742Z,2.70
2017-06-08T16:22:59.507Z,2.90
2017-06-08T16:25:30.141Z,3.33
2017-06-08T16:28:00.822Z,3.10
2017-06-08T16:30:32.131Z,2.77
2017-06-08T16:33:04.397Z,2.93
2017-06-08T16:35:36.888Z,3.13
2017-06-08T16:38:11.444Z,3.20
2017-06-08T16:40:41.406Z,2.90
2017-06-08T16:43:14.877Z,3.10
2017-06-08T16:45:49.067Z,2.60
2017-06-08T16:48:19.317Z,2.70
2017-06-08T16:50:48.666Z,2.97
2017-06-08T16:53:19.733Z,2.80
2017-06-08T16:55:50.731Z,2.60
2017-06-08T16:58:19.799Z,3.10
2017-06-08T17:00:50.895Z,3.10
2017-06-08T17:03:21.024Z,3.00
2017-06-08T17:05:52.857Z,2.57
2017-06-08T17:08:24.495Z,3.20
2017-06-08T17:10:57.038Z,2.90
2017-06-08T17:13:29.466Z,2.30
2017-06-08T17:15:58.702Z,2.60
2017-06-08T17:18:32.022Z,2.83
2017-06-08T17:21:03.832Z,2.50
2017-06-08T17:23:34.298Z,2.90
2017-06-08T17:26:09.452Z,2.90
2017-06-08T17:28:38.691Z,2.40
2017-06-08T17:31:11.190Z,3.27
2017-06-08T17:33:40.842Z,3.00
2017-06-08T17:36:11.862Z,2.47
2017-06-08T17:38:41.185Z,2.80
2017-06-08T17:41:12.032Z,2.67
2017-06-08T17:43:41.229Z,2.97
2017-06-08T17:46:13.283Z,2.90
2017-06-08T17:48:43.128Z,2.80
2017-06-08T17:51:13.885Z,2.60
2017-06-08T17:53:49.610Z,3.50
2017-06-08T17:56:39.726Z,2.80
2017-06-08T17:59:13.603Z,2.90
2017-06-08T18:01:42.893Z,3.07
2017-06-08T18:04:12.493Z,2.63
2017-06-08T18:06:43.049Z,2.90
2017-06-08T18:09:12.488Z,2.83
2017-06-08T18:11:46.181Z,2.73
2017-06-08T18:14:16.997Z,2.40
2017-06-08T18:16:46.770Z,2.70
2017-06-08T18:19:18.169Z,2.93
2017-06-08T18:21:47.691Z,2.93
2017-06-08T18:24:17.169Z,2.30
2017-06-08T18:26:46.794Z,3.07
2017-06-08T18:29:16.609Z,2.57
2017-06-08T18:31:46.329Z,2.60
2017-06-08T18:34:20.268Z,2.50
2017-06-08T18:36:51.927Z,2.33
2017-06-08T18:39:32.059Z,3.00
2017-06-08T18:42:01.406Z,2.40
2017-06-08T18:44:30.641Z,2.43
2017-06-08T18:46:59.768Z,2.90
2017-06-08T18:49:30.979Z,2.20
2017-06-08T18:52:00.299Z,3.07
2017-06-08T18:54:31.071Z,2.93
2017-06-08T18:57:00.259Z,2.60
2017-06-08T18:59:30.343Z,2.20
2017-06-08T19:02:00.898Z,2.65
2017-06-08T19:04:31.316Z,2.03
2017-06-08T19:07:00.347Z,2.40
2017-06-08T19:09:29.563Z,2.70
2017-06-08T19:11:58.769Z,2.67
2017-06-08T19:14:28.030Z,2.20
2017-06-08T19:16:57.038Z,2.63
2017-06-08T19:19:26.217Z,2.43
2017-06-08T19:21:55.479Z,2.87
2017-06-08T19:24:25.552Z,2.93
2017-06-08T19:26:56.526Z,2.30
2017-06-08T19:29:26.482Z,2.83
2017-06-08T19:31:55.560Z,2.30
2017-06-08T19:34:31.844Z,2.13
2017-06-08T19:37:00.930Z,2.10
2017-06-08T19:39:32.629Z,2.10
2017-06-08T19:42:03.536Z,2.30
2017-06-08T19:44:32.684Z,2.57
2017-06-08T19:47:01.730Z,2.30
2017-06-08T19:49:32.426Z,2.37
2017-06-08T19:52:01.595Z,2.20
2017-06-08T19:54:34.083Z,2.60
2017-06-08T19:57:05.717Z,2.30
2017-06-08T19:59:35.512Z,2.17
2017-06-08T20:02:16.761Z,2.80
2017-06-08T20:04:48.689Z,3.30
2017-06-08T20:07:19.161Z,2.30
2017-06-08T20:09:49.352Z,2.23
2017-06-08T20:12:19.545Z,2.50
2017-06-08T20:14:48.532Z,2.30
2017-06-08T20:17:18.526Z,2.60
2017-06-08T20:19:47.482Z,2.40
2017-06-08T20:22:17.997Z,2.37
2017-06-08T20:24:53.342Z,2.60
2017-06-08T20:27:24.044Z,2.43
2017-06-08T20:31:15.054Z,2.87
2017-06-08T20:33:46.408Z,2.72
2017-06-08T20:36:19.575Z,2.67
2017-06-08T20:38:50.144Z,2.70
2017-06-08T20:41:22.679Z,2.40
2017-06-08T20:43:52.016Z,2.37
2017-06-08T20:46:22.807Z,2.50
2017-06-08T20:48:53.712Z,2.40
2017-06-08T20:51:30.537Z,2.78
2017-06-08T20:54:00.348Z,2.62
2017-06-08T20:56:33.813Z,2.70
2017-06-08T20:59:07.342Z,2.30
2017-06-08T21:01:40.767Z,2.40
2017-06-08T21:04:12.408Z,2.80
2017-06-08T21:06:41.574Z,2.50
2017-06-08T21:09:12.955Z,2.55
2017-06-08T21:11:42.169Z,2.30
2017-06-08T21:14:12.101Z,2.78
2017-06-08T21:16:44.419Z,2.63
2017-06-08T21:19:14.619Z,2.50
2017-06-08T21:21:45.342Z,2.47
2017-06-08T21:24:14.394Z,2.43
2017-06-08T21:26:43.393Z,2.70
2017-06-08T21:29:12.403Z,2.40
2017-06-08T21:31:41.336Z,2.58
2017-06-08T21:34:10.317Z,2.47
2017-06-08T21:36:40.292Z,2.33
2017-06-08T21:39:09.690Z,2.50
2017-06-08T21:41:41.597Z,2.72
2017-06-08T21:44:10.517Z,3.00
2017-06-08T21:46:39.477Z,2.40
2017-06-08T21:49:08.551Z,2.67
2017-06-08T21:51:37.569Z,2.50
2017-06-08T21:54:06.665Z,2.45
2017-06-08T21:56:35.609Z,2.42
2017-06-08T21:59:13.120Z,2.30
2017-06-08T22:01:58.557Z,2.42
2017-06-08T22:04:46.096Z,2.90
2017-06-08T22:10:12.278Z,2.45
2017-06-08T22:12:41.526Z,2.62
2017-06-08T22:15:23.652Z,2.10
2017-06-08T22:17:53.172Z,2.80
2017-06-08T22:20:22.509Z,2.33
2017-06-08T22:22:51.361Z,2.45
2017-06-08T22:25:20.740Z,2.83
2017-06-08T22:27:50.337Z,2.47
2017-06-08T22:30:19.801Z,2.25
2017-06-08T22:32:49.469Z,2.93
2017-06-08T22:35:18.954Z,2.80
2017-06-08T22:37:48.217Z,2.78
2017-06-08T22:40:18.061Z,2.42
2017-06-08T22:42:47.433Z,2.40
2017-06-08T22:45:19.496Z,2.37
2017-06-08T22:47:48.463Z,2.60
2017-06-08T22:50:18.435Z,2.28
2017-06-08T22:52:47.387Z,2.20
2017-06-08T22:55:17.274Z,2.70
2017-06-08T22:57:46.133Z,2.30
2017-06-08T23:00:15.688Z,2.70
2017-06-08T23:02:44.569Z,2.67
2017-06-08T23:05:18.375Z,2.05
2017-06-08T23:07:47.339Z,2.37
2017-06-08T23:10:16.440Z,2.78
2017-06-08T23:12:45.734Z,2.97
2017-06-08T23:15:14.876Z,2.10
2017-06-08T23:17:43.781Z,2.70
2017-06-08T23:20:14.557Z,2.60
2017-06-08T23:22:43.509Z,2.65
2017-06-08T23:25:12.452Z,2.08
2017-06-08T23:27:41.465Z,2.40
2017-06-08T23:30:12.092Z,2.30
2017-06-08T23:32:42.168Z,2.10
2017-06-08T23:35:14.385Z,2.50
2017-06-08T23:37:43.300Z,2.28
2017-06-08T23:40:12.259Z,2.20
2017-06-08T23:42:41.142Z,2.42
2017-06-08T23:45:10.876Z,2.53
2017-06-08T23:47:39.758Z,2.30
2017-06-08T23:50:09.248Z,2.30
2017-06-08T23:52:38.396Z,2.35
2017-06-08T23:55:07.930Z,2.40
2017-06-08T23:57:36.824Z,2.60
